sensor_id;sensor_type;location;lat;lon;timestamp;P1;durP1;ratioP1;P2;durP2;ratioP2
39346;SDS011;26262;49.836;6.632;2022-07-01T00:01:37;8.50;;;2.40;;
39346;SDS011;26262;49.836;6.632;2022-07-01T00:06:30;4.63;;;2.88;;
39346;SDS011;26262;49.836;6.632;2022-07-01T00:08:56;5.20;;;2.25;;
39346;SDS011;26262;49.836;6.632;2022-07-01T00:11:21;5.82;;;2.40;;
39346;SDS011;26262;49.836;6.632;2022-07-01T00:13:47;4.90;;;2.47;;
39346;SDS011;26262;49.836;6.632;2022-07-01T00:16:13;4.00;;;2.42;;
39346;SDS011;26262;49.836;6.632;2022-07-01T00:18:38;5.07;;;2.20;;
39346;SDS011;26262;49.836;6.632;2022-07-01T00:21:04;4.65;;;2.60;;
39346;SDS011;26262;49.836;6.632;2022-07-01T00:23:29;4.22;;;1.85;;
39346;SDS011;26262;49.836;6.632;2022-07-01T00:25:56;5.47;;;2.17;;
39346;SDS011;26262;49.836;6.632;2022-07-01T00:28:21;3.20;;;2.05;;
39346;SDS011;26262;49.836;6.632;2022-07-01T00:30:47;4.72;;;2.10;;
39346;SDS011;26262;49.836;6.632;2022-07-01T00:33:13;4.53;;;2.33;;
39346;SDS011;26262;49.836;6.632;2022-07-01T00:35:38;5.55;;;2.85;;
39346;SDS011;26262;49.836;6.632;2022-07-01T00:38:04;3.60;;;2.40;;
39346;SDS011;26262;49.836;6.632;2022-07-01T00:40:30;5.47;;;2.90;;
39346;SDS011;26262;49.836;6.632;2022-07-01T00:42:55;3.45;;;2.67;;
39346;SDS011;26262;49.836;6.632;2022-07-01T00:45:21;2.92;;;2.10;;
39346;SDS011;26262;49.836;6.632;2022-07-01T00:47:46;2.95;;;2.15;;
39346;SDS011;26262;49.836;6.632;2022-07-01T00:50:13;6.85;;;2.10;;
39346;SDS011;26262;49.836;6.632;2022-07-01T00:52:40;4.97;;;2.38;;
39346;SDS011;26262;49.836;6.632;2022-07-01T00:55:08;3.03;;;2.20;;
39346;SDS011;26262;49.836;6.632;2022-07-01T01:00:03;7.03;;;3.08;;
39346;SDS011;26262;49.836;6.632;2022-07-01T01:02:30;4.25;;;2.15;;
39346;SDS011;26262;49.836;6.632;2022-07-01T01:04:56;3.33;;;2.25;;
39346;SDS011;26262;49.836;6.632;2022-07-01T01:07:21;5.57;;;3.33;;
39346;SDS011;26262;49.836;6.632;2022-07-01T01:09:47;5.25;;;2.22;;
39346;SDS011;26262;49.836;6.632;2022-07-01T01:12:13;4.03;;;2.05;;
39346;SDS011;26262;49.836;6.632;2022-07-01T01:14:48;5.07;;;2.13;;
39346;SDS011;26262;49.836;6.632;2022-07-01T01:17:15;5.40;;;3.25;;
39346;SDS011;26262;49.836;6.632;2022-07-01T01:19:42;5.07;;;2.90;;
39346;SDS011;26262;49.836;6.632;2022-07-01T01:22:08;3.40;;;2.28;;
39346;SDS011;26262;49.836;6.632;2022-07-01T01:24:36;4.18;;;2.10;;
39346;SDS011;26262;49.836;6.632;2022-07-01T01:27:05;3.45;;;1.92;;
39346;SDS011;26262;49.836;6.632;2022-07-01T01:29:31;4.13;;;1.90;;
39346;SDS011;26262;49.836;6.632;2022-07-01T01:31:57;3.55;;;1.90;;
39346;SDS011;26262;49.836;6.632;2022-07-01T01:34:23;3.28;;;2.08;;
39346;SDS011;26262;49.836;6.632;2022-07-01T01:36:49;3.13;;;2.08;;
39346;SDS011;26262;49.836;6.632;2022-07-01T01:39:14;4.20;;;2.58;;
39346;SDS011;26262;49.836;6.632;2022-07-01T01:41:43;3.45;;;1.92;;
39346;SDS011;26262;49.836;6.632;2022-07-01T01:44:08;2.95;;;1.80;;
39346;SDS011;26262;49.836;6.632;2022-07-01T01:46:34;5.85;;;1.90;;
39346;SDS011;26262;49.836;6.632;2022-07-01T01:49:01;3.88;;;1.90;;
39346;SDS011;26262;49.836;6.632;2022-07-01T01:51:28;2.63;;;1.50;;
39346;SDS011;26262;49.836;6.632;2022-07-01T01:53:53;3.38;;;1.70;;
39346;SDS011;26262;49.836;6.632;2022-07-01T01:56:19;4.03;;;2.05;;
39346;SDS011;26262;49.836;6.632;2022-07-01T01:58:45;2.20;;;1.52;;
39346;SDS011;26262;49.836;6.632;2022-07-01T02:01:11;2.10;;;1.40;;
39346;SDS011;26262;49.836;6.632;2022-07-01T02:03:37;2.53;;;1.87;;
39346;SDS011;26262;49.836;6.632;2022-07-01T02:06:05;4.13;;;2.00;;
39346;SDS011;26262;49.836;6.632;2022-07-01T02:08:31;4.00;;;1.85;;
39346;SDS011;26262;49.836;6.632;2022-07-01T02:10:57;3.15;;;1.83;;
39346;SDS011;26262;49.836;6.632;2022-07-01T02:13:23;2.13;;;1.50;;
39346;SDS011;26262;49.836;6.632;2022-07-01T02:15:49;4.25;;;1.60;;
39346;SDS011;26262;49.836;6.632;2022-07-01T02:18:15;2.67;;;1.60;;
39346;SDS011;26262;49.836;6.632;2022-07-01T02:20:41;1.73;;;1.42;;
39346;SDS011;26262;49.836;6.632;2022-07-01T02:23:07;3.67;;;1.55;;
39346;SDS011;26262;49.836;6.632;2022-07-01T02:25:33;3.78;;;1.63;;
39346;SDS011;26262;49.836;6.632;2022-07-01T02:27:59;3.25;;;1.95;;
39346;SDS011;26262;49.836;6.632;2022-07-01T02:30:25;3.90;;;1.73;;
39346;SDS011;26262;49.836;6.632;2022-07-01T02:32:52;2.83;;;1.80;;
39346;SDS011;26262;49.836;6.632;2022-07-01T02:35:18;3.05;;;1.90;;
39346;SDS011;26262;49.836;6.632;2022-07-01T02:37:44;3.58;;;2.20;;
39346;SDS011;26262;49.836;6.632;2022-07-01T02:40:09;3.15;;;2.13;;
39346;SDS011;26262;49.836;6.632;2022-07-01T02:42:37;2.92;;;2.00;;
39346;SDS011;26262;49.836;6.632;2022-07-01T02:45:03;2.60;;;1.60;;
39346;SDS011;26262;49.836;6.632;2022-07-01T02:47:32;4.70;;;1.77;;
39346;SDS011;26262;49.836;6.632;2022-07-01T02:50:05;3.72;;;2.17;;
39346;SDS011;26262;49.836;6.632;2022-07-01T02:52:36;1.63;;;1.45;;
39346;SDS011;26262;49.836;6.632;2022-07-01T02:55:04;2.60;;;1.50;;
39346;SDS011;26262;49.836;6.632;2022-07-01T02:59:56;3.85;;;2.00;;
39346;SDS011;26262;49.836;6.632;2022-07-01T03:02:22;3.15;;;1.70;;
39346;SDS011;26262;49.836;6.632;2022-07-01T03:04:48;3.90;;;1.65;;
39346;SDS011;26262;49.836;6.632;2022-07-01T03:07:15;4.18;;;1.60;;
39346;SDS011;26262;49.836;6.632;2022-07-01T03:09:41;2.92;;;1.55;;
39346;SDS011;26262;49.836;6.632;2022-07-01T03:12:10;2.28;;;1.67;;
39346;SDS011;26262;49.836;6.632;2022-07-01T03:14:55;3.15;;;1.48;;
39346;SDS011;26262;49.836;6.632;2022-07-01T03:17:32;2.95;;;1.20;;
39346;SDS011;26262;49.836;6.632;2022-07-01T03:19:59;3.17;;;1.40;;
39346;SDS011;26262;49.836;6.632;2022-07-01T03:22:26;3.40;;;1.60;;
39346;SDS011;26262;49.836;6.632;2022-07-01T03:24:53;3.10;;;1.80;;
39346;SDS011;26262;49.836;6.632;2022-07-01T03:27:19;4.05;;;2.10;;
39346;SDS011;26262;49.836;6.632;2022-07-01T03:29:45;2.15;;;1.73;;
39346;SDS011;26262;49.836;6.632;2022-07-01T03:32:11;2.97;;;1.83;;
39346;SDS011;26262;49.836;6.632;2022-07-01T03:34:40;4.18;;;2.00;;
39346;SDS011;26262;49.836;6.632;2022-07-01T03:37:08;3.05;;;1.80;;
39346;SDS011;26262;49.836;6.632;2022-07-01T03:39:35;5.15;;;1.67;;
39346;SDS011;26262;49.836;6.632;2022-07-01T03:42:01;2.22;;;1.60;;
39346;SDS011;26262;49.836;6.632;2022-07-01T03:44:28;4.03;;;1.65;;
39346;SDS011;26262;49.836;6.632;2022-07-01T03:46:53;3.50;;;1.50;;
39346;SDS011;26262;49.836;6.632;2022-07-01T03:49:19;1.90;;;1.27;;
39346;SDS011;26262;49.836;6.632;2022-07-01T03:51:44;2.10;;;1.70;;
39346;SDS011;26262;49.836;6.632;2022-07-01T03:54:10;2.05;;;1.25;;
39346;SDS011;26262;49.836;6.632;2022-07-01T03:56:54;3.17;;;1.52;;
39346;SDS011;26262;49.836;6.632;2022-07-01T03:59:28;2.63;;;1.70;;
39346;SDS011;26262;49.836;6.632;2022-07-01T04:01:55;3.28;;;1.83;;
39346;SDS011;26262;49.836;6.632;2022-07-01T04:04:21;2.90;;;1.63;;
39346;SDS011;26262;49.836;6.632;2022-07-01T04:06:47;3.25;;;1.45;;
39346;SDS011;26262;49.836;6.632;2022-07-01T04:09:14;1.83;;;1.55;;
39346;SDS011;26262;49.836;6.632;2022-07-01T04:11:41;3.13;;;1.53;;
39346;SDS011;26262;49.836;6.632;2022-07-01T04:14:07;5.15;;;2.35;;
39346;SDS011;26262;49.836;6.632;2022-07-01T04:16:34;4.18;;;1.30;;
39346;SDS011;26262;49.836;6.632;2022-07-01T04:19:00;2.47;;;1.38;;
39346;SDS011;26262;49.836;6.632;2022-07-01T04:21:25;2.58;;;1.30;;
39346;SDS011;26262;49.836;6.632;2022-07-01T04:24:09;2.40;;;1.40;;
39346;SDS011;26262;49.836;6.632;2022-07-01T04:26:35;3.03;;;1.50;;
39346;SDS011;26262;49.836;6.632;2022-07-01T04:29:01;2.25;;;1.38;;
39346;SDS011;26262;49.836;6.632;2022-07-01T04:31:27;2.88;;;1.42;;
39346;SDS011;26262;49.836;6.632;2022-07-01T04:33:53;2.75;;;1.40;;
39346;SDS011;26262;49.836;6.632;2022-07-01T04:36:19;2.05;;;1.30;;
39346;SDS011;26262;49.836;6.632;2022-07-01T04:38:45;2.67;;;1.83;;
39346;SDS011;26262;49.836;6.632;2022-07-01T04:41:11;2.35;;;1.73;;
39346;SDS011;26262;49.836;6.632;2022-07-01T04:43:55;2.15;;;1.38;;
39346;SDS011;26262;49.836;6.632;2022-07-01T04:46:20;2.13;;;1.75;;
39346;SDS011;26262;49.836;6.632;2022-07-01T04:48:46;2.22;;;1.60;;
39346;SDS011;26262;49.836;6.632;2022-07-01T04:51:11;3.00;;;1.70;;
39346;SDS011;26262;49.836;6.632;2022-07-01T04:53:37;2.17;;;1.42;;
39346;SDS011;26262;49.836;6.632;2022-07-01T04:56:02;4.40;;;1.80;;
39346;SDS011;26262;49.836;6.632;2022-07-01T04:58:28;4.45;;;1.85;;
39346;SDS011;26262;49.836;6.632;2022-07-01T05:00:54;3.53;;;1.58;;
39346;SDS011;26262;49.836;6.632;2022-07-01T05:03:20;3.58;;;1.58;;
39346;SDS011;26262;49.836;6.632;2022-07-01T05:05:45;2.78;;;1.85;;
39346;SDS011;26262;49.836;6.632;2022-07-01T05:08:11;3.92;;;1.80;;
39346;SDS011;26262;49.836;6.632;2022-07-01T05:10:36;3.03;;;1.70;;
39346;SDS011;26262;49.836;6.632;2022-07-01T05:13:02;2.28;;;1.60;;
39346;SDS011;26262;49.836;6.632;2022-07-01T05:15:28;3.10;;;1.80;;
39346;SDS011;26262;49.836;6.632;2022-07-01T05:17:53;5.35;;;2.30;;
39346;SDS011;26262;49.836;6.632;2022-07-01T05:20:37;5.28;;;2.40;;
39346;SDS011;26262;49.836;6.632;2022-07-01T05:23:22;3.92;;;2.10;;
39346;SDS011;26262;49.836;6.632;2022-07-01T05:25:47;5.10;;;2.50;;
39346;SDS011;26262;49.836;6.632;2022-07-01T05:28:13;2.75;;;1.95;;
39346;SDS011;26262;49.836;6.632;2022-07-01T05:30:39;3.60;;;1.90;;
39346;SDS011;26262;49.836;6.632;2022-07-01T05:33:05;5.00;;;2.15;;
39346;SDS011;26262;49.836;6.632;2022-07-01T05:35:30;4.35;;;2.08;;
39346;SDS011;26262;49.836;6.632;2022-07-01T05:37:56;3.05;;;1.70;;
39346;SDS011;26262;49.836;6.632;2022-07-01T05:40:21;2.65;;;1.73;;
39346;SDS011;26262;49.836;6.632;2022-07-01T05:42:47;4.22;;;2.00;;
39346;SDS011;26262;49.836;6.632;2022-07-01T05:45:13;2.83;;;1.90;;
39346;SDS011;26262;49.836;6.632;2022-07-01T05:47:38;4.18;;;2.47;;
39346;SDS011;26262;49.836;6.632;2022-07-01T05:50:04;5.78;;;2.67;;
39346;SDS011;26262;49.836;6.632;2022-07-01T05:52:30;3.70;;;2.10;;
39346;SDS011;26262;49.836;6.632;2022-07-01T05:54:55;3.22;;;2.05;;
39346;SDS011;26262;49.836;6.632;2022-07-01T05:57:22;5.15;;;2.10;;
39346;SDS011;26262;49.836;6.632;2022-07-01T05:59:47;3.35;;;1.80;;
39346;SDS011;26262;49.836;6.632;2022-07-01T06:02:13;3.83;;;2.03;;
39346;SDS011;26262;49.836;6.632;2022-07-01T06:04:38;4.07;;;1.77;;
39346;SDS011;26262;49.836;6.632;2022-07-01T06:07:04;5.15;;;2.10;;
39346;SDS011;26262;49.836;6.632;2022-07-01T06:09:30;6.00;;;2.10;;
39346;SDS011;26262;49.836;6.632;2022-07-01T06:11:55;4.40;;;1.90;;
39346;SDS011;26262;49.836;6.632;2022-07-01T06:14:21;3.42;;;1.80;;
39346;SDS011;26262;49.836;6.632;2022-07-01T06:16:46;3.80;;;1.50;;
39346;SDS011;26262;49.836;6.632;2022-07-01T06:19:12;3.65;;;1.40;;
39346;SDS011;26262;49.836;6.632;2022-07-01T06:21:37;4.05;;;1.58;;
39346;SDS011;26262;49.836;6.632;2022-07-01T06:24:03;4.18;;;1.90;;
39346;SDS011;26262;49.836;6.632;2022-07-01T06:26:29;5.80;;;1.60;;
39346;SDS011;26262;49.836;6.632;2022-07-01T06:28:54;3.97;;;2.08;;
39346;SDS011;26262;49.836;6.632;2022-07-01T06:31:20;3.92;;;1.55;;
39346;SDS011;26262;49.836;6.632;2022-07-01T06:33:45;3.00;;;1.42;;
39346;SDS011;26262;49.836;6.632;2022-07-01T06:36:11;2.70;;;1.25;;
39346;SDS011;26262;49.836;6.632;2022-07-01T06:38:38;3.50;;;1.67;;
39346;SDS011;26262;49.836;6.632;2022-07-01T06:41:04;5.28;;;1.92;;
39346;SDS011;26262;49.836;6.632;2022-07-01T06:43:48;3.80;;;1.45;;
39346;SDS011;26262;49.836;6.632;2022-07-01T06:46:13;4.90;;;1.40;;
39346;SDS011;26262;49.836;6.632;2022-07-01T06:48:39;5.07;;;1.90;;
39346;SDS011;26262;49.836;6.632;2022-07-01T06:51:05;3.88;;;1.67;;
39346;SDS011;26262;49.836;6.632;2022-07-01T06:53:30;3.25;;;1.60;;
39346;SDS011;26262;49.836;6.632;2022-07-01T06:55:56;3.25;;;1.60;;
39346;SDS011;26262;49.836;6.632;2022-07-01T06:58:22;3.13;;;1.30;;
39346;SDS011;26262;49.836;6.632;2022-07-01T07:00:47;2.95;;;1.30;;
39346;SDS011;26262;49.836;6.632;2022-07-01T07:03:13;4.63;;;1.63;;
39346;SDS011;26262;49.836;6.632;2022-07-01T07:05:39;2.00;;;1.42;;
39346;SDS011;26262;49.836;6.632;2022-07-01T07:08:05;5.05;;;1.48;;
39346;SDS011;26262;49.836;6.632;2022-07-01T07:10:30;3.75;;;1.38;;
39346;SDS011;26262;49.836;6.632;2022-07-01T07:12:56;2.95;;;1.50;;
39346;SDS011;26262;49.836;6.632;2022-07-01T07:15:21;2.85;;;1.70;;
39346;SDS011;26262;49.836;6.632;2022-07-01T07:17:47;3.35;;;1.55;;
39346;SDS011;26262;49.836;6.632;2022-07-01T07:20:12;1.95;;;1.00;;
39346;SDS011;26262;49.836;6.632;2022-07-01T07:22:38;3.33;;;1.40;;
39346;SDS011;26262;49.836;6.632;2022-07-01T07:25:04;2.30;;;1.25;;
39346;SDS011;26262;49.836;6.632;2022-07-01T07:27:30;3.20;;;1.40;;
39346;SDS011;26262;49.836;6.632;2022-07-01T07:29:55;2.40;;;1.30;;
39346;SDS011;26262;49.836;6.632;2022-07-01T07:32:21;2.45;;;0.95;;
39346;SDS011;26262;49.836;6.632;2022-07-01T07:34:46;2.13;;;1.00;;
39346;SDS011;26262;49.836;6.632;2022-07-01T07:37:12;3.85;;;1.48;;
39346;SDS011;26262;49.836;6.632;2022-07-01T07:39:37;2.38;;;1.45;;
39346;SDS011;26262;49.836;6.632;2022-07-01T07:42:03;1.88;;;1.00;;
39346;SDS011;26262;49.836;6.632;2022-07-01T07:44:30;4.97;;;1.80;;
39346;SDS011;26262;49.836;6.632;2022-07-01T07:46:56;3.17;;;1.63;;
39346;SDS011;26262;49.836;6.632;2022-07-01T07:49:23;1.50;;;0.70;;
39346;SDS011;26262;49.836;6.632;2022-07-01T07:51:50;2.65;;;1.50;;
39346;SDS011;26262;49.836;6.632;2022-07-01T07:54:15;2.08;;;1.13;;
39346;SDS011;26262;49.836;6.632;2022-07-01T07:56:41;5.28;;;1.58;;
39346;SDS011;26262;49.836;6.632;2022-07-01T07:59:07;2.85;;;1.15;;
39346;SDS011;26262;49.836;6.632;2022-07-01T08:01:32;3.35;;;1.10;;
39346;SDS011;26262;49.836;6.632;2022-07-01T08:03:58;2.67;;;1.15;;
39346;SDS011;26262;49.836;6.632;2022-07-01T08:06:24;3.47;;;1.30;;
39346;SDS011;26262;49.836;6.632;2022-07-01T08:08:49;4.32;;;1.17;;
39346;SDS011;26262;49.836;6.632;2022-07-01T08:11:16;2.22;;;1.33;;
39346;SDS011;26262;49.836;6.632;2022-07-01T08:13:42;2.95;;;0.90;;
39346;SDS011;26262;49.836;6.632;2022-07-01T08:16:08;4.28;;;1.00;;
39346;SDS011;26262;49.836;6.632;2022-07-01T08:18:34;3.83;;;0.85;;
39346;SDS011;26262;49.836;6.632;2022-07-01T08:20:59;1.95;;;1.10;;
39346;SDS011;26262;49.836;6.632;2022-07-01T08:23:25;2.58;;;1.00;;
39346;SDS011;26262;49.836;6.632;2022-07-01T08:25:50;4.80;;;1.15;;
39346;SDS011;26262;49.836;6.632;2022-07-01T08:28:16;3.05;;;0.90;;
39346;SDS011;26262;49.836;6.632;2022-07-01T08:30:42;1.75;;;0.70;;
39346;SDS011;26262;49.836;6.632;2022-07-01T08:33:08;1.85;;;0.77;;
39346;SDS011;26262;49.836;6.632;2022-07-01T08:35:34;2.90;;;0.80;;
39346;SDS011;26262;49.836;6.632;2022-07-01T08:38:00;2.85;;;0.70;;
39346;SDS011;26262;49.836;6.632;2022-07-01T08:40:30;3.58;;;0.90;;
39346;SDS011;26262;49.836;6.632;2022-07-01T08:42:57;3.40;;;0.98;;
39346;SDS011;26262;49.836;6.632;2022-07-01T08:45:27;2.47;;;1.08;;
39346;SDS011;26262;49.836;6.632;2022-07-01T08:47:55;2.28;;;1.02;;
39346;SDS011;26262;49.836;6.632;2022-07-01T08:50:23;2.53;;;1.23;;
39346;SDS011;26262;49.836;6.632;2022-07-01T08:52:49;2.17;;;1.20;;
39346;SDS011;26262;49.836;6.632;2022-07-01T08:55:15;4.38;;;0.80;;
39346;SDS011;26262;49.836;6.632;2022-07-01T08:57:40;2.17;;;0.70;;
39346;SDS011;26262;49.836;6.632;2022-07-01T09:00:07;1.17;;;0.85;;
39346;SDS011;26262;49.836;6.632;2022-07-01T09:02:49;2.65;;;1.08;;
39346;SDS011;26262;49.836;6.632;2022-07-01T09:05:15;1.52;;;0.60;;
39346;SDS011;26262;49.836;6.632;2022-07-01T09:07:41;1.83;;;0.90;;
39346;SDS011;26262;49.836;6.632;2022-07-01T09:10:19;1.40;;;0.77;;
39346;SDS011;26262;49.836;6.632;2022-07-01T09:12:47;1.40;;;0.63;;
39346;SDS011;26262;49.836;6.632;2022-07-01T09:15:31;2.78;;;0.70;;
39346;SDS011;26262;49.836;6.632;2022-07-01T09:18:09;4.68;;;0.82;;
39346;SDS011;26262;49.836;6.632;2022-07-01T09:20:36;2.05;;;0.50;;
39346;SDS011;26262;49.836;6.632;2022-07-01T09:23:05;1.80;;;0.60;;
39346;SDS011;26262;49.836;6.632;2022-07-01T09:25:39;3.03;;;0.80;;
39346;SDS011;26262;49.836;6.632;2022-07-01T09:30:35;1.80;;;0.60;;
39346;SDS011;26262;49.836;6.632;2022-07-01T09:33:09;2.72;;;0.80;;
39346;SDS011;26262;49.836;6.632;2022-07-01T09:35:39;3.17;;;0.98;;
39346;SDS011;26262;49.836;6.632;2022-07-01T09:38:05;1.73;;;0.60;;
39346;SDS011;26262;49.836;6.632;2022-07-01T09:40:51;5.07;;;1.17;;
39346;SDS011;26262;49.836;6.632;2022-07-01T09:43:26;4.90;;;0.80;;
39346;SDS011;26262;49.836;6.632;2022-07-01T09:45:53;2.63;;;0.70;;
39346;SDS011;26262;49.836;6.632;2022-07-01T09:48:25;1.60;;;0.50;;
39346;SDS011;26262;49.836;6.632;2022-07-01T09:50:52;1.98;;;0.68;;
39346;SDS011;26262;49.836;6.632;2022-07-01T09:53:18;2.38;;;0.40;;
39346;SDS011;26262;49.836;6.632;2022-07-01T09:55:44;2.88;;;0.60;;
39346;SDS011;26262;49.836;6.632;2022-07-01T09:58:10;3.28;;;1.10;;
39346;SDS011;26262;49.836;6.632;2022-07-01T10:00:36;0.77;;;0.40;;
39346;SDS011;26262;49.836;6.632;2022-07-01T10:03:03;2.13;;;0.50;;
39346;SDS011;26262;49.836;6.632;2022-07-01T10:05:31;0.57;;;0.30;;
39346;SDS011;26262;49.836;6.632;2022-07-01T10:13:26;1.00;;;0.43;;
39346;SDS011;26262;49.836;6.632;2022-07-01T10:15:56;1.48;;;0.40;;
39346;SDS011;26262;49.836;6.632;2022-07-01T10:18:23;2.03;;;0.50;;
39346;SDS011;26262;49.836;6.632;2022-07-01T10:20:50;2.25;;;0.47;;
39346;SDS011;26262;49.836;6.632;2022-07-01T10:23:19;1.85;;;0.50;;
39346;SDS011;26262;49.836;6.632;2022-07-01T10:25:47;1.77;;;0.80;;
39346;SDS011;26262;49.836;6.632;2022-07-01T10:38:30;1.92;;;0.50;;
39346;SDS011;26262;49.836;6.632;2022-07-01T10:40:55;1.30;;;0.60;;
39346;SDS011;26262;49.836;6.632;2022-07-01T10:43:34;1.80;;;0.70;;
39346;SDS011;26262;49.836;6.632;2022-07-01T10:46:01;1.50;;;0.50;;
39346;SDS011;26262;49.836;6.632;2022-07-01T10:48:28;3.38;;;0.57;;
39346;SDS011;26262;49.836;6.632;2022-07-01T10:50:56;3.67;;;0.82;;
39346;SDS011;26262;49.836;6.632;2022-07-01T10:53:21;2.67;;;0.40;;
39346;SDS011;26262;49.836;6.632;2022-07-01T10:55:48;1.08;;;0.40;;
39346;SDS011;26262;49.836;6.632;2022-07-01T10:58:18;1.25;;;0.40;;
39346;SDS011;26262;49.836;6.632;2022-07-01T11:00:59;0.52;;;0.35;;
39346;SDS011;26262;49.836;6.632;2022-07-01T11:03:25;1.73;;;0.63;;
39346;SDS011;26262;49.836;6.632;2022-07-01T11:05:51;3.35;;;0.55;;
39346;SDS011;26262;49.836;6.632;2022-07-01T11:08:18;1.38;;;0.40;;
39346;SDS011;26262;49.836;6.632;2022-07-01T11:10:49;1.05;;;0.40;;
39346;SDS011;26262;49.836;6.632;2022-07-01T11:13:15;1.20;;;0.30;;
39346;SDS011;26262;49.836;6.632;2022-07-01T11:15:42;2.30;;;0.55;;
39346;SDS011;26262;49.836;6.632;2022-07-01T11:18:10;1.83;;;0.40;;
39346;SDS011;26262;49.836;6.632;2022-07-01T11:20:35;2.92;;;0.68;;
39346;SDS011;26262;49.836;6.632;2022-07-01T11:23:01;1.90;;;0.50;;
39346;SDS011;26262;49.836;6.632;2022-07-01T11:25:27;1.20;;;0.40;;
39346;SDS011;26262;49.836;6.632;2022-07-01T11:27:54;1.60;;;0.50;;
39346;SDS011;26262;49.836;6.632;2022-07-01T11:30:20;2.28;;;0.50;;
39346;SDS011;26262;49.836;6.632;2022-07-01T11:32:48;1.55;;;0.57;;
39346;SDS011;26262;49.836;6.632;2022-07-01T11:35:16;1.55;;;0.40;;
39346;SDS011;26262;49.836;6.632;2022-07-01T11:38:05;2.15;;;0.63;;
39346;SDS011;26262;49.836;6.632;2022-07-01T11:40:51;0.93;;;0.30;;
39346;SDS011;26262;49.836;6.632;2022-07-01T11:43:18;1.38;;;0.63;;
39346;SDS011;26262;49.836;6.632;2022-07-01T11:45:48;1.30;;;0.40;;
39346;SDS011;26262;49.836;6.632;2022-07-01T11:48:27;1.73;;;0.47;;
39346;SDS011;26262;49.836;6.632;2022-07-01T11:50:54;3.10;;;0.40;;
39346;SDS011;26262;49.836;6.632;2022-07-01T11:53:19;1.55;;;0.52;;
39346;SDS011;26262;49.836;6.632;2022-07-01T11:55:45;2.05;;;0.60;;
39346;SDS011;26262;49.836;6.632;2022-07-01T11:58:11;4.22;;;0.57;;
39346;SDS011;26262;49.836;6.632;2022-07-01T12:00:36;1.73;;;0.60;;
39346;SDS011;26262;49.836;6.632;2022-07-01T12:03:02;1.35;;;0.70;;
39346;SDS011;26262;49.836;6.632;2022-07-01T12:05:28;4.75;;;0.60;;
39346;SDS011;26262;49.836;6.632;2022-07-01T12:07:54;0.95;;;0.47;;
39346;SDS011;26262;49.836;6.632;2022-07-01T12:10:24;2.90;;;0.50;;
39346;SDS011;26262;49.836;6.632;2022-07-01T12:12:50;1.55;;;0.50;;
39346;SDS011;26262;49.836;6.632;2022-07-01T12:15:16;2.47;;;0.52;;
39346;SDS011;26262;49.836;6.632;2022-07-01T12:17:42;1.65;;;0.45;;
39346;SDS011;26262;49.836;6.632;2022-07-01T12:20:07;2.63;;;0.50;;
39346;SDS011;26262;49.836;6.632;2022-07-01T12:22:33;2.83;;;0.40;;
39346;SDS011;26262;49.836;6.632;2022-07-01T12:25:06;2.78;;;0.63;;
39346;SDS011;26262;49.836;6.632;2022-07-01T12:27:34;1.75;;;0.50;;
39346;SDS011;26262;49.836;6.632;2022-07-01T12:30:00;1.90;;;0.60;;
39346;SDS011;26262;49.836;6.632;2022-07-01T12:32:27;2.38;;;0.50;;
39346;SDS011;26262;49.836;6.632;2022-07-01T12:35:03;1.65;;;0.70;;
39346;SDS011;26262;49.836;6.632;2022-07-01T12:37:50;2.13;;;0.50;;
39346;SDS011;26262;49.836;6.632;2022-07-01T12:40:20;2.03;;;0.50;;
39346;SDS011;26262;49.836;6.632;2022-07-01T12:42:47;2.17;;;0.70;;
39346;SDS011;26262;49.836;6.632;2022-07-01T12:45:14;1.63;;;0.70;;
39346;SDS011;26262;49.836;6.632;2022-07-01T12:47:48;2.10;;;0.82;;
39346;SDS011;26262;49.836;6.632;2022-07-01T12:50:16;1.35;;;0.38;;
39346;SDS011;26262;49.836;6.632;2022-07-01T12:55:31;2.58;;;0.52;;
39346;SDS011;26262;49.836;6.632;2022-07-01T12:57:58;1.50;;;0.60;;
39346;SDS011;26262;49.836;6.632;2022-07-01T13:00:24;1.17;;;0.45;;
39346;SDS011;26262;49.836;6.632;2022-07-01T13:05:19;2.20;;;0.40;;
39346;SDS011;26262;49.836;6.632;2022-07-01T13:07:45;0.82;;;0.30;;
39346;SDS011;26262;49.836;6.632;2022-07-01T13:10:11;1.88;;;0.40;;
39346;SDS011;26262;49.836;6.632;2022-07-01T13:12:37;1.60;;;0.40;;
39346;SDS011;26262;49.836;6.632;2022-07-01T13:15:02;0.65;;;0.32;;
39346;SDS011;26262;49.836;6.632;2022-07-01T13:17:28;0.30;;;0.30;;
39346;SDS011;26262;49.836;6.632;2022-07-01T13:19:54;1.85;;;0.50;;
39346;SDS011;26262;49.836;6.632;2022-07-01T13:22:19;0.70;;;0.30;;
39346;SDS011;26262;49.836;6.632;2022-07-01T13:24:45;2.40;;;0.55;;
39346;SDS011;26262;49.836;6.632;2022-07-01T13:27:11;1.38;;;0.40;;
39346;SDS011;26262;49.836;6.632;2022-07-01T13:29:37;1.02;;;0.35;;
39346;SDS011;26262;49.836;6.632;2022-07-01T13:32:03;1.35;;;0.50;;
39346;SDS011;26262;49.836;6.632;2022-07-01T13:34:29;1.58;;;0.45;;
39346;SDS011;26262;49.836;6.632;2022-07-01T13:36:55;2.55;;;0.88;;
39346;SDS011;26262;49.836;6.632;2022-07-01T13:39:21;2.08;;;0.55;;
39346;SDS011;26262;49.836;6.632;2022-07-01T13:41:47;1.77;;;0.30;;
39346;SDS011;26262;49.836;6.632;2022-07-01T13:44:13;1.30;;;0.43;;
39346;SDS011;26262;49.836;6.632;2022-07-01T13:46:38;1.45;;;0.40;;
39346;SDS011;26262;49.836;6.632;2022-07-01T13:49:04;0.70;;;0.40;;
39346;SDS011;26262;49.836;6.632;2022-07-01T13:51:30;1.48;;;0.30;;
39346;SDS011;26262;49.836;6.632;2022-07-01T13:53:55;1.75;;;0.43;;
39346;SDS011;26262;49.836;6.632;2022-07-01T13:56:23;1.52;;;0.50;;
39346;SDS011;26262;49.836;6.632;2022-07-01T13:58:49;1.25;;;0.30;;
39346;SDS011;26262;49.836;6.632;2022-07-01T14:01:16;0.85;;;0.40;;
39346;SDS011;26262;49.836;6.632;2022-07-01T14:03:42;1.05;;;0.50;;
39346;SDS011;26262;49.836;6.632;2022-07-01T14:06:08;3.03;;;0.90;;
39346;SDS011;26262;49.836;6.632;2022-07-01T14:08:33;2.13;;;0.40;;
39346;SDS011;26262;49.836;6.632;2022-07-01T14:10:59;2.67;;;0.90;;
39346;SDS011;26262;49.836;6.632;2022-07-01T14:13:25;0.60;;;0.47;;
39346;SDS011;26262;49.836;6.632;2022-07-01T14:15:50;0.90;;;0.50;;
39346;SDS011;26262;49.836;6.632;2022-07-01T14:18:16;1.20;;;0.40;;
39346;SDS011;26262;49.836;6.632;2022-07-01T14:20:42;1.20;;;0.40;;
39346;SDS011;26262;49.836;6.632;2022-07-01T14:23:07;2.28;;;0.50;;
39346;SDS011;26262;49.836;6.632;2022-07-01T14:25:33;1.83;;;0.43;;
39346;SDS011;26262;49.836;6.632;2022-07-01T14:27:59;3.78;;;0.52;;
39346;SDS011;26262;49.836;6.632;2022-07-01T14:30:24;1.30;;;0.40;;
39346;SDS011;26262;49.836;6.632;2022-07-01T14:32:50;3.00;;;0.47;;
39346;SDS011;26262;49.836;6.632;2022-07-01T14:35:15;0.50;;;0.30;;
39346;SDS011;26262;49.836;6.632;2022-07-01T14:37:41;2.08;;;0.40;;
39346;SDS011;26262;49.836;6.632;2022-07-01T14:40:08;2.00;;;0.70;;
39346;SDS011;26262;49.836;6.632;2022-07-01T14:42:36;3.00;;;0.40;;
39346;SDS011;26262;49.836;6.632;2022-07-01T14:45:02;2.20;;;0.47;;
39346;SDS011;26262;49.836;6.632;2022-07-01T14:47:29;1.95;;;0.70;;
39346;SDS011;26262;49.836;6.632;2022-07-01T14:49:54;1.73;;;0.60;;
39346;SDS011;26262;49.836;6.632;2022-07-01T14:52:21;1.90;;;0.88;;
39346;SDS011;26262;49.836;6.632;2022-07-01T14:54:48;1.15;;;0.60;;
39346;SDS011;26262;49.836;6.632;2022-07-01T14:57:15;0.55;;;0.32;;
39346;SDS011;26262;49.836;6.632;2022-07-01T14:59:40;0.60;;;0.40;;
39346;SDS011;26262;49.836;6.632;2022-07-01T15:02:06;2.70;;;0.77;;
39346;SDS011;26262;49.836;6.632;2022-07-01T15:04:32;3.15;;;0.50;;
39346;SDS011;26262;49.836;6.632;2022-07-01T15:06:58;2.03;;;0.50;;
39346;SDS011;26262;49.836;6.632;2022-07-01T15:09:25;1.92;;;0.55;;
39346;SDS011;26262;49.836;6.632;2022-07-01T15:11:51;3.53;;;0.60;;
39346;SDS011;26262;49.836;6.632;2022-07-01T15:14:16;1.38;;;0.60;;
39346;SDS011;26262;49.836;6.632;2022-07-01T15:16:43;1.45;;;0.55;;
39346;SDS011;26262;49.836;6.632;2022-07-01T15:19:09;2.03;;;0.50;;